Time;durP1;ratioP1;P1;durP2;ratioP2;P2;SDS_P1;SDS_P2;PMS_P1;PMS_P2;Temp;Humidity;BMP_temperature;BMP_pressure;BME280_temperature;BME280_humidity;BME280_pressure;Samples;Min_cycle;Max_cycle;Signal;HPM_P1;HPM_P2
2024/02/08 00:00:08;;;;;;;;;;;-2.80;99.90;;;;;;5066557;28;19924;-61
2024/02/08 00:02:35;;;;;;;;;;;-2.80;99.90;;;;;;5058002;28;19925;-63
2024/02/08 00:05:02;;;;;;;;;;;-2.80;99.90;;;;;;5052639;28;19979;-58
2024/02/08 00:07:29;;;;;;;;;;;-2.80;99.90;;;;;;5060638;28;20298;-59
2024/02/08 00:09:56;;;;;;;;;;;-2.80;99.90;;;;;;5067267;28;20039;-63
2024/02/08 00:12:24;;;;;;;;;;;-2.80;99.90;;;;;;5068495;28;19931;-60
2024/02/08 00:14:50;;;;;;;;;;;-2.70;99.90;;;;;;5053065;28;19937;-58
2024/02/08 00:17:20;;;;;;;;;;;-2.70;99.90;;;;;;5057974;28;19925;-71
2024/02/08 00:19:50;;;;;;;;;;;-2.70;99.90;;;;;;5061475;28;19931;-63
2024/02/08 00:22:20;;;;;;;;;;;-2.70;99.90;;;;;;5055380;28;19932;-59
2024/02/08 00:24:47;;;;;;;;;;;-2.70;99.90;;;;;;5068932;28;19924;-60
2024/02/08 00:27:18;;;;;;;;;;;-2.70;99.90;;;;;;5059887;28;19928;-62
2024/02/08 00:29:45;;;;;;;;;;;-2.80;99.90;;;;;;5060695;28;19929;-61
2024/02/08 00:32:12;;;;;;;;;;;-2.80;99.90;;;;;;5056716;28;19925;-58
2024/02/08 00:34:40;;;;;;;;;;;-2.70;99.90;;;;;;5053050;28;20341;-63
2024/02/08 00:37:07;;;;;;;;;;;-2.70;99.90;;;;;;5064030;28;19925;-58
2024/02/08 00:39:34;;;;;;;;;;;-2.70;99.90;;;;;;5052912;28;19977;-59
2024/02/08 00:42:01;;;;;;;;;;;-2.70;99.90;;;;;;5051788;28;20341;-59
2024/02/08 00:44:28;;;;;;;;;;;-2.70;99.90;;;;;;5050165;28;20429;-62
2024/02/08 00:46:55;;;;;;;;;;;-2.70;99.90;;;;;;5056242;28;19959;-58
2024/02/08 00:49:22;;;;;;;;;;;-2.70;99.90;;;;;;5061272;28;19925;-58
2024/02/08 00:51:49;;;;;;;;;;;-2.80;99.90;;;;;;5057867;28;19952;-66
2024/02/08 00:54:16;;;;;;;;;;;-2.80;99.90;;;;;;5061058;28;19924;-60
2024/02/08 00:56:43;;;;;;;;;;;-2.80;99.90;;;;;;5060928;28;19925;-58
2024/02/08 00:59:10;;;;;;;;;;;-2.80;99.90;;;;;;5067641;28;19996;-62
2024/02/08 01:01:39;;;;;;;;;;;-2.80;99.90;;;;;;5061573;28;19958;-68
2024/02/08 01:04:07;;;;;;;;;;;-2.80;99.90;;;;;;5071373;28;19930;-59
2024/02/08 01:06:40;;;;;;;;;;;-2.80;99.90;;;;;;5063236;28;20514;-61
2024/02/08 01:09:07;;;;;;;;;;;-2.80;99.90;;;;;;5056396;28;20000;-66
2024/02/08 01:11:34;;;;;;;;;;;-2.80;99.90;;;;;;5059238;28;19964;-59
2024/02/08 01:14:04;;;;;;;;;;;-2.80;99.90;;;;;;5035468;28;19947;-58
2024/02/08 01:16:33;;;;;;;;;;;-2.80;99.90;;;;;;5037647;28;19948;-60
2024/02/08 01:19:00;;;;;;;;;;;-2.80;99.90;;;;;;5056106;28;20378;-60
2024/02/08 01:21:27;;;;;;;;;;;-2.80;99.90;;;;;;5052281;28;19936;-64
2024/02/08 01:23:54;;;;;;;;;;;-2.80;99.90;;;;;;5052099;28;19932;-58
2024/02/08 01:26:21;;;;;;;;;;;-2.80;99.90;;;;;;5059910;28;20579;-59
2024/02/08 01:28:47;;;;;;;;;;;-2.80;99.90;;;;;;5061911;28;20378;-71
2024/02/08 01:31:14;;;;;;;;;;;-2.80;99.90;;;;;;5064270;28;19929;-59
2024/02/08 01:33:42;;;;;;;;;;;-2.80;99.90;;;;;;5053099;28;19925;-59
2024/02/08 01:36:10;;;;;;;;;;;-2.80;99.90;;;;;;5057949;28;20682;-65
2024/02/08 01:38:37;;;;;;;;;;;-2.80;99.90;;;;;;5058067;28;19925;-61
2024/02/08 01:41:06;;;;;;;;;;;-2.80;99.90;;;;;;5056066;28;19924;-66
2024/02/08 01:43:33;;;;;;;;;;;-2.80;99.90;;;;;;5054951;28;19925;-61
2024/02/08 01:46:02;;;;;;;;;;;-2.80;99.90;;;;;;5059592;28;19935;-65
2024/02/08 01:48:29;;;;;;;;;;;-2.80;99.90;;;;;;5052285;28;19925;-58
2024/02/08 01:50:59;;;;;;;;;;;-2.80;99.90;;;;;;5054446;28;20298;-60
2024/02/08 01:53:31;;;;;;;;;;;-2.80;99.90;;;;;;5053551;28;19971;-66
2024/02/08 01:56:00;;;;;;;;;;;-2.80;99.90;;;;;;5050553;28;20378;-62
2024/02/08 01:58:30;;;;;;;;;;;-2.70;99.90;;;;;;5069317;28;19943;-58
2024/02/08 02:01:08;;;;;;;;;;;-2.70;99.90;;;;;;5038026;28;19951;-58
2024/02/08 02:03:35;;;;;;;;;;;-2.70;99.90;;;;;;5061272;28;19971;-64
2024/02/08 02:06:07;;;;;;;;;;;-2.70;99.90;;;;;;5055833;28;19931;-58
2024/02/08 02:08:35;;;;;;;;;;;-2.70;99.90;;;;;;5049359;28;19944;-59
2024/02/08 02:11:05;;;;;;;;;;;-2.80;99.90;;;;;;5060343;28;20323;-58
2024/02/08 02:13:35;;;;;;;;;;;-2.80;99.90;;;;;;5060986;28;19924;-60
2024/02/08 02:16:02;;;;;;;;;;;-2.70;99.90;;;;;;5054971;28;20309;-58
2024/02/08 02:18:31;;;;;;;;;;;-2.80;99.90;;;;;;5054301;28;19932;-59
2024/02/08 02:20:58;;;;;;;;;;;-2.80;99.90;;;;;;5060826;28;20027;-61
2024/02/08 02:23:25;;;;;;;;;;;-2.80;99.90;;;;;;5060122;28;20323;-61
2024/02/08 02:25:53;;;;;;;;;;;-2.80;99.90;;;;;;5073994;28;20379;-58
2024/02/08 02:28:20;;;;;;;;;;;-2.80;99.90;;;;;;5060882;28;19936;-64
2024/02/08 02:30:48;;;;;;;;;;;-2.80;99.90;;;;;;5064883;28;19925;-60
2024/02/08 02:33:16;;;;;;;;;;;-2.80;99.90;;;;;;5058440;28;20007;-60
2024/02/08 02:35:48;;;;;;;;;;;-2.80;99.90;;;;;;5058218;28;19999;-59
2024/02/08 02:38:18;;;;;;;;;;;-2.80;99.90;;;;;;5064112;28;20454;-62
2024/02/08 02:40:46;;;;;;;;;;;-2.80;99.90;;;;;;5054674;28;19937;-59
2024/02/08 02:43:14;;;;;;;;;;;-2.80;99.90;;;;;;5055099;28;19975;-60
2024/02/08 02:45:41;;;;;;;;;;;-2.70;99.90;;;;;;5064440;28;19924;-63
2024/02/08 02:48:08;;;;;;;;;;;-2.70;99.90;;;;;;5060031;28;20243;-58
2024/02/08 02:50:41;;;;;;;;;;;-2.70;99.90;;;;;;5069630;28;20389;-60
2024/02/08 02:53:09;;;;;;;;;;;-2.80;99.90;;;;;;5068214;28;19935;-58
2024/02/08 02:55:37;;;;;;;;;;;-2.80;99.90;;;;;;5061940;28;19924;-59
2024/02/08 02:58:04;;;;;;;;;;;-2.80;99.90;;;;;;5073204;28;19924;-59
2024/02/08 03:00:34;;;;;;;;;;;-2.80;99.90;;;;;;5059782;28;19951;-63
2024/02/08 03:03:07;;;;;;;;;;;-2.80;99.90;;;;;;5052978;28;19947;-58
2024/02/08 03:05:37;;;;;;;;;;;-2.80;99.90;;;;;;5056523;28;20535;-63
2024/02/08 03:08:07;;;;;;;;;;;-2.80;99.90;;;;;;5054152;28;20374;-61
2024/02/08 03:10:34;;;;;;;;;;;-2.70;99.90;;;;;;5061086;28;19925;-59
2024/02/08 03:13:01;;;;;;;;;;;-2.80;99.90;;;;;;5068104;28;19965;-67
2024/02/08 03:15:28;;;;;;;;;;;-2.80;99.90;;;;;;5056360;28;19928;-58
2024/02/08 03:17:55;;;;;;;;;;;-2.80;99.90;;;;;;5058430;28;20371;-63
2024/02/08 03:20:29;;;;;;;;;;;-2.80;99.90;;;;;;5056346;28;20244;-59
2024/02/08 03:22:56;;;;;;;;;;;-2.80;99.90;;;;;;5057421;28;19928;-58
2024/02/08 03:25:24;;;;;;;;;;;-2.80;99.90;;;;;;5052399;28;19929;-61
2024/02/08 03:27:51;;;;;;;;;;;-2.70;99.90;;;;;;5065169;28;19974;-59
2024/02/08 03:30:19;;;;;;;;;;;-2.70;99.90;;;;;;5056475;28;19925;-59
2024/02/08 03:32:48;;;;;;;;;;;-2.70;99.90;;;;;;5059944;28;20627;-62
2024/02/08 03:35:25;;;;;;;;;;;-2.70;99.90;;;;;;5059295;28;19947;-60
2024/02/08 03:37:55;;;;;;;;;;;-2.60;99.90;;;;;;5048192;28;19924;-62
2024/02/08 03:40:22;;;;;;;;;;;-2.60;99.90;;;;;;5062705;28;19925;-58
2024/02/08 03:42:49;;;;;;;;;;;-2.60;99.90;;;;;;5070065;28;19977;-59
2024/02/08 03:45:23;;;;;;;;;;;-2.60;99.90;;;;;;5066629;28;19928;-61
2024/02/08 03:47:50;;;;;;;;;;;-2.60;99.90;;;;;;5067767;28;20307;-59
2024/02/08 03:50:18;;;;;;;;;;;-2.60;99.90;;;;;;5058290;28;19932;-59
2024/02/08 03:52:45;;;;;;;;;;;-2.60;99.90;;;;;;5055600;28;20414;-58
2024/02/08 03:55:13;;;;;;;;;;;-2.50;99.90;;;;;;5055773;28;19924;-61
2024/02/08 03:57:39;;;;;;;;;;;-2.50;99.90;;;;;;5054638;28;19928;-60
2024/02/08 04:00:13;;;;;;;;;;;-2.50;99.90;;;;;;5059570;28;19984;-64
2024/02/08 04:02:43;;;;;;;;;;;-2.50;99.90;;;;;;5058947;28;19931;-58
2024/02/08 04:05:22;;;;;;;;;;;-2.50;99.90;;;;;;5058930;28;19932;-58
2024/02/08 04:07:59;;;;;;;;;;;-2.50;99.90;;;;;;5053306;28;19925;-59
2024/02/08 04:53:30;;;;;;;;;;;-2.50;99.90;;;;;;5060541;28;19928;-58
2024/02/08 04:54:41;;;;;;;;;;;-2.90;99.90;;;;;;5038015;28;19925;-69
2024/02/08 04:57:09;;;;;;;;;;;-3.00;99.90;;;;;;5044930;28;19965;-58
2024/02/08 04:59:40;;;;;;;;;;;-3.00;99.90;;;;;;5056192;28;19929;-61
2024/02/08 05:02:07;;;;;;;;;;;-3.10;99.90;;;;;;5055087;28;19940;-61
2024/02/08 05:04:35;;;;;;;;;;;-3.10;99.90;;;;;;5048059;28;19924;-58
2024/02/08 05:07:08;;;;;;;;;;;-3.10;99.90;;;;;;5065298;28;20019;-64
2024/02/08 05:09:35;;;;;;;;;;;-3.10;99.90;;;;;;5047498;28;19925;-76
2024/02/08 05:12:05;;;;;;;;;;;-3.10;99.90;;;;;;5057401;28;19979;-61
2024/02/08 05:14:35;;;;;;;;;;;-3.10;99.90;;;;;;5059019;28;20531;-58
2024/02/08 05:17:03;;;;;;;;;;;-3.10;99.90;;;;;;5056818;28;20403;-59
2024/02/08 05:19:30;;;;;;;;;;;-3.10;99.90;;;;;;5050321;28;19971;-59
2024/02/08 05:21:59;;;;;;;;;;;-3.20;99.90;;;;;;5048238;28;20286;-58
2024/02/08 05:24:27;;;;;;;;;;;-3.10;99.90;;;;;;5052356;28;19935;-58
2024/02/08 05:26:55;;;;;;;;;;;-3.10;99.90;;;;;;5047746;28;19925;-58
2024/02/08 05:29:22;;;;;;;;;;;-3.10;99.90;;;;;;5056318;28;20597;-58
2024/02/08 05:31:49;;;;;;;;;;;-3.20;99.90;;;;;;5065683;28;19932;-61
2024/02/08 05:34:17;;;;;;;;;;;-3.20;99.90;;;;;;5067892;28;19956;-61
2024/02/08 05:36:46;;;;;;;;;;;-3.20;99.90;;;;;;5058070;28;19924;-58
2024/02/08 05:39:13;;;;;;;;;;;-3.20;99.90;;;;;;5053774;28;20298;-66
2024/02/08 05:41:44;;;;;;;;;;;-3.20;99.90;;;;;;5052817;28;19925;-63
2024/02/08 05:44:12;;;;;;;;;;;-3.30;99.90;;;;;;5053077;28;19925;-58
2024/02/08 05:46:39;;;;;;;;;;;-3.30;99.90;;;;;;5051158;28;19925;-59
2024/02/08 05:49:13;;;;;;;;;;;-3.40;99.90;;;;;;5062836;28;19924;-63
2024/02/08 05:51:46;;;;;;;;;;;-3.40;99.90;;;;;;5062357;28;19936;-58
2024/02/08 05:54:20;;;;;;;;;;;-3.30;99.90;;;;;;5062645;28;20428;-62
2024/02/08 05:56:47;;;;;;;;;;;-3.40;99.90;;;;;;5060676;28;19932;-59
2024/02/08 05:59:19;;;;;;;;;;;-3.40;99.90;;;;;;5064354;28;20023;-59
2024/02/08 06:01:54;;;;;;;;;;;-3.50;99.90;;;;;;5063876;28;20386;-64
2024/02/08 06:04:24;;;;;;;;;;;-3.50;99.90;;;;;;5064130;28;20344;-59
2024/02/08 06:07:05;;;;;;;;;;;-3.50;99.90;;;;;;5062683;28;19925;-58
2024/02/08 06:09:47;;;;;;;;;;;-3.60;99.90;;;;;;5062547;28;19930;-63
2024/02/08 06:12:28;;;;;;;;;;;-3.60;99.90;;;;;;5063319;28;19951;-58
2024/02/08 06:14:58;;;;;;;;;;;-3.60;99.90;;;;;;5046253;28;20379;-62
2024/02/08 06:17:32;;;;;;;;;;;-3.70;99.90;;;;;;5050760;28;19931;-58
2024/02/08 06:20:00;;;;;;;;;;;-3.70;99.90;;;;;;5053854;28;19925;-62
2024/02/08 06:22:29;;;;;;;;;;;-3.70;99.90;;;;;;5067276;28;20027;-58
2024/02/08 06:25:27;;;;;;;;;;;-3.70;99.90;;;;;;5058544;28;21017;-58
2024/02/08 06:27:58;;;;;;;;;;;-3.80;99.90;;;;;;5069054;28;19978;-59
2024/02/08 06:30:30;;;;;;;;;;;-3.90;99.90;;;;;;5065307;28;19983;-61
2024/02/08 06:33:24;;;;;;;;;;;-3.90;99.90;;;;;;5054750;28;19967;-59
2024/02/08 06:35:56;;;;;;;;;;;-4.00;99.90;;;;;;5061462;28;19924;-58
2024/02/08 06:38:51;;;;;;;;;;;-4.00;99.90;;;;;;5062395;28;20635;-64
2024/02/08 06:41:52;;;;;;;;;;;-4.00;99.90;;;;;;5059889;28;19929;-63
2024/02/08 06:44:42;;;;;;;;;;;-4.10;99.90;;;;;;5064871;28;19931;-62
2024/02/08 06:47:18;;;;;;;;;;;-4.10;99.90;;;;;;5061155;28;19947;-59
2024/02/08 07:39:34;;;;;;;;;;;-5.30;99.90;;;;;;5054675;28;20346;-63
2024/02/08 07:42:12;;;;;;;;;;;-5.30;99.90;;;;;;5053458;28;19932;-60
2024/02/08 07:44:45;;;;;;;;;;;-5.30;99.90;;;;;;5052123;28;19925;-62
2024/02/08 07:47:12;;;;;;;;;;;-5.40;99.90;;;;;;5055551;28;19925;-72
2024/02/08 07:49:42;;;;;;;;;;;-5.50;99.90;;;;;;5057324;28;19925;-60
2024/02/08 07:52:19;;;;;;;;;;;-5.50;99.90;;;;;;5047552;28;19925;-61
2024/02/08 07:54:47;;;;;;;;;;;-5.50;99.90;;;;;;5056215;28;19928;-65
2024/02/08 07:57:14;;;;;;;;;;;-5.50;99.90;;;;;;5033452;28;19925;-61
2024/02/08 07:59:42;;;;;;;;;;;-5.50;99.90;;;;;;5059639;28;20285;-60
2024/02/08 08:02:13;;;;;;;;;;;-5.50;99.90;;;;;;5044028;28;20363;-59
2024/02/08 08:04:51;;;;;;;;;;;-5.50;99.90;;;;;;5055172;28;20287;-62
2024/02/08 08:07:23;;;;;;;;;;;-5.50;99.90;;;;;;5055131;28;20344;-59
2024/02/08 08:09:59;;;;;;;;;;;-5.50;99.90;;;;;;5057480;28;19924;-59
2024/02/08 08:12:28;;;;;;;;;;;-5.50;99.90;;;;;;5066763;28;19924;-60
2024/02/08 08:15:13;;;;;;;;;;;-5.40;99.90;;;;;;5061333;28;19925;-69
2024/02/08 08:17:59;;;;;;;;;;;-5.40;99.90;;;;;;5046959;28;19926;-71
2024/02/08 08:23:25;;;;;;;;;;;-5.30;99.90;;;;;;5055095;28;19931;-63
2024/02/08 08:28:51;;;;;;;;;;;-5.20;99.90;;;;;;5061148;28;19939;-60
2024/02/08 08:36:58;;;;;;;;;;;-5.10;99.90;;;;;;5055842;28;19925;-63
2024/02/08 08:42:17;;;;;;;;;;;-5.00;99.90;;;;;;5054339;28;19982;-59
2024/02/08 08:44:59;;;;;;;;;;;-5.00;99.90;;;;;;5046874;28;19971;-63
2024/02/08 08:47:28;;;;;;;;;;;-4.90;99.90;;;;;;5045479;28;20377;-60
2024/02/08 08:49:55;;;;;;;;;;;-4.80;99.90;;;;;;5055284;28;19929;-60
2024/02/08 08:52:25;;;;;;;;;;;-4.70;99.90;;;;;;5051891;28;19932;-63
2024/02/08 08:55:10;;;;;;;;;;;-4.60;99.90;;;;;;5065474;28;19993;-59
2024/02/08 08:57:38;;;;;;;;;;;-4.50;99.90;;;;;;5062030;28;20737;-65
2024/02/08 09:00:09;;;;;;;;;;;-4.40;99.90;;;;;;5066169;28;19931;-61
2024/02/08 09:02:40;;;;;;;;;;;-4.40;99.90;;;;;;5057030;28;19936;-65
2024/02/08 09:05:17;;;;;;;;;;;-4.30;99.90;;;;;;5055479;28;19925;-62
2024/02/08 09:07:45;;;;;;;;;;;-4.20;99.90;;;;;;5051674;28;20007;-59
2024/02/08 09:10:16;;;;;;;;;;;-4.10;99.90;;;;;;5054005;28;19931;-59
2024/02/08 09:12:59;;;;;;;;;;;-4.00;99.90;;;;;;5063882;28;20381;-59
2024/02/08 09:15:26;;;;;;;;;;;-4.00;99.90;;;;;;5051946;28;19935;-59
2024/02/08 09:18:07;;;;;;;;;;;-3.90;99.90;;;;;;5064582;28;19929;-67
2024/02/08 09:20:37;;;;;;;;;;;-3.90;99.90;;;;;;5045804;28;19936;-66
2024/02/08 09:23:14;;;;;;;;;;;-3.80;99.90;;;;;;5045695;28;19929;-62
2024/02/08 09:25:45;;;;;;;;;;;-3.70;99.90;;;;;;5064406;28;20015;-59
2024/02/08 09:28:35;;;;;;;;;;;-3.70;99.90;;;;;;5059010;28;20327;-59
2024/02/08 09:31:12;;;;;;;;;;;-3.70;99.90;;;;;;5055538;28;19925;-65
2024/02/08 09:33:47;;;;;;;;;;;-3.60;99.90;;;;;;5061479;28;19928;-63
2024/02/08 09:36:15;;;;;;;;;;;-3.60;99.90;;;;;;5058105;28;19924;-59
2024/02/08 09:38:45;;;;;;;;;;;-3.60;99.90;;;;;;5073128;28;19938;-60
2024/02/08 09:41:23;;;;;;;;;;;-3.60;99.90;;;;;;5057443;28;19925;-64
2024/02/08 09:43:57;;;;;;;;;;;-3.60;99.90;;;;;;5055031;28;20030;-59
2024/02/08 09:49:13;;;;;;;;;;;-3.70;99.90;;;;;;5062798;28;19925;-64
2024/02/08 09:51:51;;;;;;;;;;;-3.70;99.90;;;;;;5057543;28;19925;-61
2024/02/08 09:54:26;;;;;;;;;;;-3.80;99.90;;;;;;5043891;28;19924;-61
2024/02/08 09:57:20;;;;;;;;;;;-3.80;99.90;;;;;;5056786;28;20024;-67
2024/02/08 10:00:07;;;;;;;;;;;-3.80;99.90;;;;;;5061725;28;19925;-60
2024/02/08 10:03:03;;;;;;;;;;;-3.90;99.90;;;;;;5056599;28;19986;-61
2024/02/08 10:05:50;;;;;;;;;;;-3.90;99.90;;;;;;5065519;28;19928;-61
2024/02/08 10:08:28;;;;;;;;;;;-3.90;99.90;;;;;;5055244;28;19968;-63
2024/02/08 10:13:53;;;;;;;;;;;-3.90;99.90;;;;;;5052726;28;20366;-59
2024/02/08 10:16:29;;;;;;;;;;;-3.90;99.90;;;;;;5054776;28;19929;-59
2024/02/08 10:19:03;;;;;;;;;;;-3.80;99.90;;;;;;5054257;28;19924;-59
2024/02/08 10:21:35;;;;;;;;;;;-3.80;99.90;;;;;;5058897;28;20011;-62
2024/02/08 10:24:26;;;;;;;;;;;-3.70;99.90;;;;;;5060150;28;19973;-63
2024/02/08 10:26:58;;;;;;;;;;;-3.70;99.90;;;;;;5055493;28;19925;-58
2024/02/08 10:29:25;;;;;;;;;;;-3.70;99.90;;;;;;5054656;28;19933;-58
2024/02/08 10:31:52;;;;;;;;;;;-3.60;99.90;;;;;;5057786;28;19932;-58
2024/02/08 10:34:33;;;;;;;;;;;-3.50;99.90;;;;;;5062906;28;19929;-73
2024/02/08 10:37:04;;;;;;;;;;;-3.50;99.90;;;;;;5063251;28;19970;-58
2024/02/08 10:39:32;;;;;;;;;;;-3.40;99.90;;;;;;5064920;28;19925;-58
2024/02/08 10:42:00;;;;;;;;;;;-3.30;99.90;;;;;;5056206;28;19931;-59
2024/02/08 10:44:29;;;;;;;;;;;-3.30;99.90;;;;;;5054416;28;19929;-59
2024/02/08 10:47:06;;;;;;;;;;;-3.20;99.90;;;;;;5058399;28;19952;-69
2024/02/08 10:49:42;;;;;;;;;;;-3.10;99.90;;;;;;5057524;28;19936;-64
2024/02/08 10:52:12;;;;;;;;;;;-3.10;99.90;;;;;;5059726;28;20023;-59
2024/02/08 10:54:42;;;;;;;;;;;-3.00;99.90;;;;;;5057030;28;20645;-79
2024/02/08 10:57:39;;;;;;;;;;;-3.00;99.90;;;;;;5061888;28;20296;-60
2024/02/08 10:59:59;;;;;;;;;;;-3.00;99.90;;;;;;5063500;28;19931;-63
2024/02/08 11:02:32;;;;;;;;;;;-3.00;99.90;;;;;;5049419;28;20017;-61
2024/02/08 11:07:46;;;;;;;;;;;-2.90;99.90;;;;;;5061211;28;19979;-59
2024/02/08 11:10:20;;;;;;;;;;;-2.90;99.90;;;;;;5053966;28;19925;-63
2024/02/08 11:12:49;;;;;;;;;;;-2.90;99.90;;;;;;5054194;28;19925;-63
2024/02/08 11:15:17;;;;;;;;;;;-2.80;99.90;;;;;;5064744;28;19925;-62
2024/02/08 11:17:49;;;;;;;;;;;-2.80;99.90;;;;;;5061122;28;19924;-60
2024/02/08 11:20:23;;;;;;;;;;;-2.70;99.90;;;;;;5055081;28;19932;-59
2024/02/08 11:22:57;;;;;;;;;;;-2.70;99.90;;;;;;5054575;28;20039;-62
2024/02/08 11:25:33;;;;;;;;;;;-2.70;99.90;;;;;;5058209;28;19928;-61
2024/02/08 11:28:10;;;;;;;;;;;-2.70;99.90;;;;;;5068168;28;19929;-71
2024/02/08 11:30:52;;;;;;;;;;;-2.60;99.90;;;;;;5062945;28;19924;-64
2024/02/08 11:33:32;;;;;;;;;;;-2.60;99.90;;;;;;5059257;28;20016;-59
2024/02/08 11:36:11;;;;;;;;;;;-2.60;99.90;;;;;;5047466;28;20330;-60
2024/02/08 11:38:46;;;;;;;;;;;-2.60;99.90;;;;;;5056506;28;19925;-64
2024/02/08 11:41:18;;;;;;;;;;;-2.50;99.90;;;;;;5053424;28;19925;-63
2024/02/08 11:43:51;;;;;;;;;;;-2.50;99.90;;;;;;5052872;28;19925;-67
2024/02/08 11:46:18;;;;;;;;;;;-2.50;99.90;;;;;;5057396;28;19925;-60
2024/02/08 11:48:46;;;;;;;;;;;-2.50;99.90;;;;;;5069655;28;20019;-61
2024/02/08 11:51:15;;;;;;;;;;;-2.40;99.90;;;;;;5054125;28;19933;-62
2024/02/08 11:53:46;;;;;;;;;;;-2.30;99.90;;;;;;5050171;28;20298;-62
2024/02/08 11:56:16;;;;;;;;;;;-2.30;99.90;;;;;;5065795;28;19924;-63
2024/02/08 11:58:44;;;;;;;;;;;-2.20;99.90;;;;;;5049271;28;20275;-62
2024/02/08 12:01:14;;;;;;;;;;;-2.10;99.90;;;;;;5056877;28;19947;-59
2024/02/08 12:03:41;;;;;;;;;;;-2.10;99.90;;;;;;5062718;28;19979;-59
2024/02/08 12:06:21;;;;;;;;;;;-2.00;99.90;;;;;;5046005;28;20390;-60
2024/02/08 12:09:04;;;;;;;;;;;-1.90;99.90;;;;;;5056320;28;19924;-59
2024/02/08 12:11:31;;;;;;;;;;;-1.80;99.90;;;;;;5059025;28;19924;-63
2024/02/08 12:14:02;;;;;;;;;;;-1.70;99.90;;;;;;5052815;28;19928;-59
2024/02/08 12:16:50;;;;;;;;;;;-1.50;99.90;;;;;;5054141;28;19971;-61
2024/02/08 12:19:18;;;;;;;;;;;-1.40;99.90;;;;;;5052939;28;19970;-63
2024/02/08 12:22:03;;;;;;;;;;;-1.40;99.90;;;;;;5053734;28;20401;-61
2024/02/08 12:24:31;;;;;;;;;;;-1.30;99.90;;;;;;5047288;28;19932;-60
2024/02/08 12:27:07;;;;;;;;;;;-1.10;99.90;;;;;;5051367;28;19933;-61
2024/02/08 12:29:44;;;;;;;;;;;-1.10;99.90;;;;;;5047789;28;19925;-60
2024/02/08 12:32:16;;;;;;;;;;;-1.10;99.90;;;;;;5034630;28;19978;-60
2024/02/08 12:34:47;;;;;;;;;;;-1.00;99.90;;;;;;5054595;28;19964;-60
2024/02/08 12:37:16;;;;;;;;;;;-0.90;99.90;;;;;;5053811;28;19925;-64
2024/02/08 12:39:44;;;;;;;;;;;-0.90;99.90;;;;;;5055482;28;19947;-63
2024/02/08 12:42:14;;;;;;;;;;;-0.80;99.90;;;;;;5055742;28;19930;-60
2024/02/08 12:44:48;;;;;;;;;;;-0.80;99.90;;;;;;5062587;28;19933;-60
2024/02/08 12:47:18;;;;;;;;;;;-0.90;99.90;;;;;;5060622;28;19994;-61
2024/02/08 12:49:46;;;;;;;;;;;-0.80;99.90;;;;;;5057046;28;19928;-59
2024/02/08 12:52:15;;;;;;;;;;;-0.80;99.90;;;;;;5066328;28;19925;-66
2024/02/08 12:54:52;;;;;;;;;;;-0.80;99.90;;;;;;5057099;28;20243;-60
2024/02/08 12:57:21;;;;;;;;;;;-0.80;99.90;;;;;;5053875;28;19925;-68
2024/02/08 12:59:58;;;;;;;;;;;-0.80;99.90;;;;;;5062644;28;19929;-62
2024/02/08 13:02:25;;;;;;;;;;;-0.90;99.90;;;;;;5055982;28;19971;-59
2024/02/08 13:04:54;;;;;;;;;;;-0.90;99.90;;;;;;5072808;28;19925;-59
2024/02/08 13:07:25;;;;;;;;;;;-0.90;99.90;;;;;;5058950;28;19932;-61
2024/02/08 13:10:00;;;;;;;;;;;-0.90;99.90;;;;;;5055464;28;19986;-62
2024/02/08 13:12:27;;;;;;;;;;;-0.90;99.90;;;;;;5054020;28;20368;-59
2024/02/08 13:14:56;;;;;;;;;;;-0.90;99.90;;;;;;5064160;28;19950;-59
2024/02/08 13:17:26;;;;;;;;;;;-0.90;99.90;;;;;;5058686;28;19970;-61
2024/02/08 13:19:57;;;;;;;;;;;-0.90;99.90;;;;;;5060181;28;20344;-60
2024/02/08 13:22:25;;;;;;;;;;;-0.90;99.90;;;;;;5058568;28;19925;-59
2024/02/08 13:24:52;;;;;;;;;;;-0.90;99.90;;;;;;5055208;28;19971;-59
2024/02/08 13:27:28;;;;;;;;;;;-1.00;99.90;;;;;;5054324;28;20010;-59
2024/02/08 13:29:56;;;;;;;;;;;-1.00;99.90;;;;;;5050328;28;20036;-69
2024/02/08 13:32:27;;;;;;;;;;;-1.10;99.90;;;;;;5057730;28;19950;-59
2024/02/08 13:34:54;;;;;;;;;;;-1.10;99.90;;;;;;5052165;28;19999;-59
2024/02/08 13:37:22;;;;;;;;;;;-1.20;99.90;;;;;;5056797;28;19939;-60
2024/02/08 13:39:50;;;;;;;;;;;-1.30;99.90;;;;;;5055199;28;19929;-62
2024/02/08 13:42:20;;;;;;;;;;;-1.30;99.90;;;;;;5056554;28;19943;-70
2024/02/08 13:44:50;;;;;;;;;;;-1.40;99.90;;;;;;5055992;28;19979;-61
2024/02/08 13:47:17;;;;;;;;;;;-1.50;99.90;;;;;;5047775;28;19932;-63
2024/02/08 13:49:52;;;;;;;;;;;-1.60;99.90;;;;;;5049113;28;20014;-63
2024/02/08 13:52:26;;;;;;;;;;;-1.60;99.90;;;;;;5050958;28;21257;-60
2024/02/08 13:54:58;;;;;;;;;;;-1.60;99.90;;;;;;5051584;28;19924;-62
2024/02/08 13:57:25;;;;;;;;;;;-1.70;99.90;;;;;;5050371;28;20380;-58
2024/02/08 13:59:55;;;;;;;;;;;-1.70;99.90;;;;;;5057943;28;19925;-59
2024/02/08 14:02:23;;;;;;;;;;;-1.70;99.90;;;;;;5053478;28;19925;-63
2024/02/08 14:04:52;;;;;;;;;;;-1.70;99.90;;;;;;5067715;28;19928;-59
2024/02/08 14:07:28;;;;;;;;;;;-1.80;99.90;;;;;;5052939;28;19925;-59
2024/02/08 14:09:59;;;;;;;;;;;-1.80;99.90;;;;;;5052576;28;20448;-67
2024/02/08 14:12:26;;;;;;;;;;;-1.90;99.90;;;;;;5057514;28;20023;-58
2024/02/08 14:14:54;;;;;;;;;;;-1.90;99.90;;;;;;5056050;28;19951;-60
2024/02/08 14:17:22;;;;;;;;;;;-1.90;99.90;;;;;;5062128;28;19960;-58
2024/02/08 14:19:49;;;;;;;;;;;-2.00;99.90;;;;;;5056610;28;19924;-62
2024/02/08 14:22:16;;;;;;;;;;;-2.00;99.90;;;;;;5065332;28;19971;-60
2024/02/08 14:24:50;;;;;;;;;;;-2.10;99.90;;;;;;5054938;28;19924;-65
2024/02/08 14:27:17;;;;;;;;;;;-2.10;99.90;;;;;;5061618;28;19924;-62
2024/02/08 14:29:44;;;;;;;;;;;-2.10;99.90;;;;;;5056341;28;19940;-59
2024/02/08 14:32:13;;;;;;;;;;;-2.20;99.90;;;;;;5067457;28;20039;-62
2024/02/08 14:34:55;;;;;;;;;;;-2.20;99.90;;;;;;5053253;28;20055;-60
2024/02/08 14:37:22;;;;;;;;;;;-2.30;99.90;;;;;;5054388;28;19987;-58
2024/02/08 14:39:49;;;;;;;;;;;-2.30;99.90;;;;;;5055307;28;20489;-62
2024/02/08 14:42:24;;;;;;;;;;;-2.30;99.90;;;;;;5054478;28;20016;-60
2024/02/08 14:44:53;;;;;;;;;;;-2.40;99.90;;;;;;5062450;28;19924;-59
2024/02/08 14:47:31;;;;;;;;;;;-2.50;99.90;;;;;;5057171;28;19929;-61
2024/02/08 14:50:15;;;;;;;;;;;-2.50;99.90;;;;;;5066024;28;19924;-59
2024/02/08 14:52:49;;;;;;;;;;;-2.60;99.90;;;;;;5060128;28;19985;-59
2024/02/08 14:55:22;;;;;;;;;;;-2.60;99.90;;;;;;5059048;28;20386;-59
2024/02/08 14:57:52;;;;;;;;;;;-2.70;99.90;;;;;;5059530;28;19924;-59
2024/02/08 15:00:57;;;;;;;;;;;-2.80;99.90;;;;;;5056625;28;19974;-76
2024/02/08 15:03:22;;;;;;;;;;;-2.80;99.90;;;;;;5057394;28;19964;-61
2024/02/08 15:05:59;;;;;;;;;;;-2.90;99.90;;;;;;5058006;28;20011;-59
2024/02/08 15:11:03;;;;;;;;;;;-3.00;99.90;;;;;;5053389;28;19924;-62
2024/02/08 15:13:45;;;;;;;;;;;-3.00;99.90;;;;;;5056833;28;19936;-61
2024/02/08 15:16:12;;;;;;;;;;;-3.10;99.90;;;;;;5056931;28;19951;-63
2024/02/08 15:18:47;;;;;;;;;;;-3.20;99.90;;;;;;5050835;28;19924;-61
2024/02/08 15:21:15;;;;;;;;;;;-3.20;99.90;;;;;;5051552;28;20041;-62
2024/02/08 15:23:48;;;;;;;;;;;-3.30;99.90;;;;;;5057007;28;19932;-58
2024/02/08 15:26:24;;;;;;;;;;;-3.30;99.90;;;;;;5049994;28;19925;-59
2024/02/08 15:28:56;;;;;;;;;;;-3.40;99.90;;;;;;5051957;28;20546;-57
2024/02/08 15:31:39;;;;;;;;;;;-3.50;99.90;;;;;;5055499;28;19925;-57
2024/02/08 15:37:13;;;;;;;;;;;-3.60;99.90;;;;;;5059650;28;19972;-62
2024/02/08 15:42:17;;;;;;;;;;;-3.70;99.90;;;;;;5057106;28;19924;-62
2024/02/08 15:44:47;;;;;;;;;;;-3.70;99.90;;;;;;5054187;28;20432;-59
2024/02/08 15:47:18;;;;;;;;;;;-3.70;99.90;;;;;;5053811;28;20294;-58
2024/02/08 15:49:46;;;;;;;;;;;-3.70;99.90;;;;;;5047812;28;19925;-65
2024/02/08 15:52:16;;;;;;;;;;;-3.80;99.90;;;;;;5053155;28;20276;-58
2024/02/08 15:54:44;;;;;;;;;;;-3.80;99.90;;;;;;5054182;28;19963;-57
2024/02/08 15:57:13;;;;;;;;;;;-3.80;99.90;;;;;;5047875;28;19925;-59
2024/02/08 15:59:46;;;;;;;;;;;-3.80;99.90;;;;;;5048344;28;20379;-58
2024/02/08 16:02:13;;;;;;;;;;;-3.80;99.90;;;;;;5050855;28;19931;-60
2024/02/08 16:04:49;;;;;;;;;;;-3.80;99.90;;;;;;5050488;28;19929;-58
2024/02/08 16:07:19;;;;;;;;;;;-3.80;99.90;;;;;;5059193;28;19929;-65
2024/02/08 16:09:57;;;;;;;;;;;-3.80;99.90;;;;;;5051601;28;19929;-62
2024/02/08 16:15:04;;;;;;;;;;;-3.80;99.90;;;;;;5051970;28;19925;-62
2024/02/08 16:20:23;;;;;;;;;;;-3.80;99.90;;;;;;5062255;28;19933;-61
2024/02/08 16:23:02;;;;;;;;;;;-3.80;99.90;;;;;;5045640;28;20391;-60
2024/02/08 16:25:44;;;;;;;;;;;-3.80;99.90;;;;;;5050863;28;19932;-62
2024/02/08 16:28:23;;;;;;;;;;;-3.80;99.90;;;;;;5058579;28;19925;-60
2024/02/08 16:31:00;;;;;;;;;;;-3.80;99.90;;;;;;5052458;28;20804;-60
2024/02/08 16:33:41;;;;;;;;;;;-3.80;99.90;;;;;;5051423;28;20425;-71
2024/02/08 16:41:51;;;;;;;;;;;-3.80;99.90;;;;;;5047638;28;20394;-61
2024/02/08 16:44:22;;;;;;;;;;;-3.90;99.90;;;;;;5056467;28;20414;-61
2024/02/08 16:46:53;;;;;;;;;;;-3.90;99.90;;;;;;5052251;28;19925;-62
2024/02/08 16:49:27;;;;;;;;;;;-3.90;99.90;;;;;;5054800;28;19928;-57
2024/02/08 16:51:55;;;;;;;;;;;-4.00;99.90;;;;;;5058134;28;19931;-59
2024/02/08 16:54:35;;;;;;;;;;;-4.00;99.90;;;;;;5051925;28;19971;-59